Time;durP1;ratioP1;P1;durP2;ratioP2;P2;SDS_P1;SDS_P2;PMS_P1;PMS_P2;Temp;Humidity;BMP_temperature;BMP_pressure;BME280_temperature;BME280_humidity;BME280_pressure;Samples;Min_cycle;Max_cycle;Signal;HPM_P1;HPM_P2
2024/03/18 00:02:22;;;;;;;;;4.00;4.00;;;;;-143.90;67.17;76574.16;4924023;28;104728;-75
2024/03/18 00:04:48;;;;;;;;;6.00;5.00;;;;;-143.90;67.03;76578.31;4913372;28;102459;-75
2024/03/18 00:07:13;;;;;;;;;5.25;4.00;;;;;-143.90;67.75;76580.38;4907062;28;102305;-74
2024/03/18 00:09:39;;;;;;;;;8.00;4.00;;;;;-143.90;68.05;76580.38;4933480;28;102492;-74
2024/03/18 00:12:07;;;;;;;;;2.50;2.50;;;;;-143.90;68.23;76578.31;4938279;28;104653;-74
2024/03/18 00:14:33;;;;;;;;;1.75;1.00;;;;;-143.90;68.31;76586.56;4918195;28;102425;-73
2024/03/18 00:16:58;;;;;;;;;4.75;4.00;;;;;-143.90;68.38;76594.84;4917761;28;102050;-75
2024/03/18 00:19:25;;;;;;;;;2.75;2.75;;;;;-143.90;69.67;76603.13;4909067;28;102826;-74
2024/03/18 00:21:51;;;;;;;;;3.00;2.00;;;;;-143.90;69.46;76603.13;4909349;28;105472;-74
2024/03/18 00:24:19;;;;;;;;;2.00;2.00;;;;;-143.90;69.06;76588.63;4912121;28;102716;-74
2024/03/18 00:26:46;;;;;;;;;1.00;1.00;;;;;-143.90;67.92;76578.31;4913092;28;106444;-76
2024/03/18 00:29:12;;;;;;;;;4.00;2.50;;;;;-143.90;68.13;76578.31;4904937;28;107456;-73
2024/03/18 00:31:38;;;;;;;;;2.50;1.50;;;;;-143.90;68.29;76590.72;4906947;28;104547;-74
2024/03/18 00:34:03;;;;;;;;;2.25;2.25;;;;;-143.90;67.82;76596.91;4912134;28;102492;-74
2024/03/18 00:36:30;;;;;;;;;1.50;1.25;;;;;-143.90;67.12;76592.78;4921307;28;102759;-74
2024/03/18 00:38:55;;;;;;;;;2.00;2.00;;;;;-143.90;66.91;76590.72;4911649;28;102377;-74
2024/03/18 00:44:05;;;;;;;;;4.25;2.00;;;;;-143.90;68.77;76561.75;4911038;28;102268;-74
2024/03/18 00:46:31;;;;;;;;;2.00;2.00;;;;;-143.90;68.28;76563.81;4930631;28;103563;-74
2024/03/18 00:48:56;;;;;;;;;2.00;2.00;;;;;-143.90;69.28;76561.75;4924748;28;102919;-74
2024/03/18 00:51:22;;;;;;;;;4.00;2.00;;;;;-143.90;67.99;76576.22;4908962;28;104558;-75
2024/03/18 00:53:48;;;;;;;;;4.75;4.00;;;;;-143.90;68.22;76561.75;4925975;28;102488;-74
2024/03/18 00:56:13;;;;;;;;;4.50;2.00;;;;;-143.90;66.55;76557.63;4918226;28;103400;-74
2024/03/18 00:58:42;;;;;;;;;3.50;3.50;;;;;-143.90;67.44;76565.88;4917415;28;102587;-75
2024/03/18 01:01:07;;;;;;;;;2.50;1.50;;;;;-143.90;67.41;76578.31;4904104;28;102690;-75
2024/03/18 01:03:34;;;;;;;;;2.00;2.00;;;;;-143.90;67.15;76582.44;4921815;28;102569;-74
2024/03/18 01:06:00;;;;;;;;;4.75;3.25;;;;;-143.90;67.68;76598.97;4919964;28;102235;-76
2024/03/18 01:08:26;;;;;;;;;2.00;2.00;;;;;-143.90;68.78;76594.84;4932061;28;102451;-74
2024/03/18 01:10:51;;;;;;;;;4.00;3.50;;;;;-143.90;69.15;76601.03;4919743;28;104503;-75
2024/03/18 01:13:17;;;;;;;;;3.50;2.50;;;;;-143.90;69.16;76613.47;4888615;28;105032;-74
2024/03/18 01:15:43;;;;;;;;;4.00;2.00;;;;;-143.90;68.83;76607.25;4915227;28;102324;-75
2024/03/18 01:18:09;;;;;;;;;3.00;2.00;;;;;-143.90;70.18;76611.38;4917524;28;102308;-74
2024/03/18 01:20:38;;;;;;;;;4.75;3.50;;;;;-143.90;69.60;76605.19;4919106;28;104470;-74
2024/03/18 01:23:04;;;;;;;;;3.50;3.50;;;;;-143.90;69.79;76603.13;4916368;28;102476;-74
2024/03/18 01:25:32;;;;;;;;;5.00;4.00;;;;;-143.90;69.59;76607.25;4921236;28;102109;-75
2024/03/18 01:27:58;;;;;;;;;5.50;4.25;;;;;-143.90;69.60;76611.38;4934874;28;102824;-75
2024/03/18 01:30:24;;;;;;;;;6.00;5.25;;;;;-143.90;69.82;76607.25;4933412;28;104549;-75
2024/03/18 01:32:49;;;;;;;;;7.50;5.00;;;;;-143.90;70.72;76615.53;4919529;28;102597;-75
2024/03/18 01:35:22;;;;;;;;;3.25;3.25;;;;;-143.90;70.97;76598.97;4910799;28;102559;-74
2024/03/18 01:37:49;;;;;;;;;5.25;4.00;;;;;-143.90;70.79;76601.03;4919595;28;105009;-75
2024/03/18 01:40:15;;;;;;;;;4.00;2.00;;;;;-143.90;70.15;76594.84;4935450;28;104891;-74
2024/03/18 01:42:41;;;;;;;;;5.25;4.00;;;;;-143.90;70.15;76592.78;4925131;28;102210;-74
2024/03/18 01:45:08;;;;;;;;;1.75;1.00;;;;;-143.90;70.16;76596.91;4908709;28;102334;-75
2024/03/18 01:47:34;;;;;;;;;4.50;2.00;;;;;-143.90;70.07;76584.50;4914213;28;102660;-74
2024/03/18 01:50:00;;;;;;;;;2.50;2.00;;;;;-143.90;71.07;76584.50;4919428;28;104635;-74
2024/03/18 01:52:26;;;;;;;;;2.00;2.00;;;;;-143.90;71.50;76592.78;4923231;28;102161;-74
2024/03/18 01:54:52;;;;;;;;;4.25;4.00;;;;;-143.90;71.08;76592.78;4922625;28;102370;-75
2024/03/18 01:57:17;;;;;;;;;5.25;3.00;;;;;-143.90;71.98;76590.72;4911202;28;103324;-75
2024/03/18 01:59:44;;;;;;;;;4.00;4.00;;;;;-143.90;71.45;76588.63;4924894;28;104548;-75
2024/03/18 02:02:11;;;;;;;;;4.25;4.25;;;;;-143.90;71.09;76596.91;4915145;28;104001;-75
2024/03/18 02:04:37;;;;;;;;;4.75;4.50;;;;;-143.90;70.60;76603.13;4919115;28;102668;-75
2024/03/18 02:07:18;;;;;;;;;3.75;3.75;;;;;-143.90;71.83;76611.38;4918382;28;102807;-75
2024/03/18 02:09:44;;;;;;;;;4.00;2.00;;;;;-143.90;73.13;76625.88;4916311;28;103346;-75
2024/03/18 02:12:11;;;;;;;;;4.50;3.75;;;;;-143.90;73.68;76601.03;4922743;28;101929;-75
2024/03/18 02:14:36;;;;;;;;;5.25;3.50;;;;;-143.90;75.06;76615.53;4924388;28;102731;-75
2024/03/18 02:17:03;;;;;;;;;4.75;4.00;;;;;-143.90;74.85;76619.66;4915796;28;102714;-75
2024/03/18 02:19:29;;;;;;;;;4.00;2.50;;;;;-143.90;73.24;76605.19;4919063;28;104901;-75
2024/03/18 02:21:55;;;;;;;;;4.50;4.50;;;;;-143.90;73.63;76611.38;4918145;28;102759;-73
2024/03/18 02:24:21;;;;;;;;;3.00;3.00;;;;;-143.90;73.84;76611.38;4923799;28;102089;-74
2024/03/18 02:26:47;;;;;;;;;4.75;4.75;;;;;-143.90;73.57;76607.25;4924836;28;102285;-74
2024/03/18 02:29:13;;;;;;;;;2.50;2.50;;;;;-143.90;72.91;76607.25;4912448;28;105126;-75
2024/03/18 02:31:39;;;;;;;;;4.00;2.00;;;;;-143.90;73.82;76619.66;4917128;28;101934;-74
2024/03/18 02:34:05;;;;;;;;;2.00;2.00;;;;;-143.90;75.06;76636.22;4919964;28;102731;-75
2024/03/18 02:36:31;;;;;;;;;4.00;4.00;;;;;-143.90;75.66;76640.34;4926354;28;107157;-73
2024/03/18 02:38:56;;;;;;;;;8.25;4.00;;;;;-143.90;76.88;76648.63;4918036;28;109190;-74
2024/03/18 02:41:22;;;;;;;;;5.00;4.25;;;;;-143.90;78.58;76640.34;4908450;28;102176;-73
2024/03/18 02:43:48;;;;;;;;;6.00;3.00;;;;;-143.90;84.22;76625.88;4919534;28;102352;-74
2024/03/18 02:46:13;;;;;;;;;8.00;6.50;;;;;-143.90;94.84;76623.78;4922395;28;102521;-74
2024/03/18 02:48:39;;;;;;;;;8.00;6.00;;;;;-143.90;97.20;76634.13;4921000;28;104525;-74
2024/03/18 02:51:05;;;;;;;;;9.00;8.25;;;;;-143.90;100.00;76654.81;4933821;28;102933;-74
2024/03/18 02:53:32;;;;;;;;;8.75;6.00;;;;;-143.90;100.00;76656.88;4910163;28;102063;-74
2024/03/18 02:55:58;;;;;;;;;7.50;6.00;;;;;-143.90;100.00;76685.84;4927719;28;101977;-74
2024/03/18 02:58:23;;;;;;;;;5.00;4.75;;;;;-143.90;100.00;76692.03;4922308;28;104571;-74
2024/03/18 03:00:51;;;;;;;;;4.00;4.00;;;;;-143.90;100.00;76714.78;4923742;28;102033;-74
2024/03/18 03:03:17;;;;;;;;;6.00;5.00;;;;;-143.90;100.00;76729.28;4906242;28;103389;-74
2024/03/18 03:05:43;;;;;;;;;6.25;5.00;;;;;-143.90;100.00;76731.34;4918942;28;102994;-74
2024/03/18 03:08:08;;;;;;;;;4.25;4.00;;;;;-143.90;100.00;76731.34;4925008;28;104813;-74
2024/03/18 03:10:34;;;;;;;;;4.00;4.00;;;;;-143.90;100.00;76733.41;4929716;28;102475;-74
2024/03/18 03:13:00;;;;;;;;;1.50;0.75;;;;;-143.90;100.00;76760.28;4920754;28;102321;-74
2024/03/18 03:15:25;;;;;;;;;6.00;4.00;;;;;-143.90;100.00;76756.16;4907138;28;103184;-74
2024/03/18 03:17:51;;;;;;;;;5.67;4.67;;;;;-143.90;100.00;76766.50;4932750;28;104532;-74
2024/03/18 03:20:20;;;;;;;;;5.00;4.00;;;;;-143.90;100.00;76764.44;4917990;28;102446;-74
2024/03/18 03:22:46;;;;;;;;;6.00;5.00;;;;;-143.90;100.00;76768.56;4907240;28;104337;-74
2024/03/18 03:25:12;;;;;;;;;4.50;4.00;;;;;-143.90;100.00;76766.50;4911225;28;102446;-74
2024/03/18 03:27:39;;;;;;;;;6.00;6.00;;;;;-143.90;100.00;76762.38;4922393;28;104627;-73
2024/03/18 03:30:05;;;;;;;;;5.67;5.00;;;;;-143.90;100.00;76762.38;4920285;28;102279;-73
2024/03/18 03:32:30;;;;;;;;;5.75;5.00;;;;;-143.90;100.00;76768.56;4923402;28;102359;-75
2024/03/18 03:34:56;;;;;;;;;4.33;4.00;;;;;-143.90;100.00;76762.38;4941607;28;102186;-76
2024/03/18 03:37:23;;;;;;;;;6.33;5.00;;;;;-143.90;100.00;76764.44;4912833;28;104454;-74
2024/03/18 03:39:49;;;;;;;;;8.67;6.00;;;;;-143.90;100.00;76756.16;4923420;28;102348;-73
2024/03/18 03:42:15;;;;;;;;;8.25;5.75;;;;;-143.90;100.00;76756.16;4924370;28;102374;-73
2024/03/18 03:44:40;;;;;;;;;5.00;4.00;;;;;-143.90;100.00;76739.63;4930885;28;101993;-74
2024/03/18 03:47:06;;;;;;;;;5.00;4.67;;;;;-143.90;100.00;76735.47;4911434;28;105024;-74
2024/03/18 03:49:32;;;;;;;;;5.00;4.33;;;;;-143.90;100.00;76727.22;4918224;28;103107;-74
2024/03/18 03:51:57;;;;;;;;;8.33;8.00;;;;;-143.90;100.00;76733.41;4924607;28;104015;-74
2024/03/18 03:54:25;;;;;;;;;8.67;7.33;;;;;-143.90;100.00;76737.53;4942994;28;102534;-74
2024/03/18 03:56:50;;;;;;;;;11.33;8.00;;;;;-143.90;100.00;76747.88;4920579;28;104834;-75
2024/03/18 03:59:16;;;;;;;;;18.00;14.00;;;;;-143.90;100.00;76778.91;4907259;28;102600;-74
2024/03/18 04:01:41;;;;;;;;;14.33;11.33;;;;;-143.90;100.00;76774.78;4941335;28;104614;-74
2024/03/18 04:04:07;;;;;;;;;18.67;13.00;;;;;-143.90;100.00;76764.44;4926206;28;103372;-74
2024/03/18 04:06:33;;;;;;;;;13.00;12.00;;;;;-143.90;100.00;76770.63;4912071;28;105328;-73
2024/03/18 04:08:58;;;;;;;;;9.00;9.00;;;;;-143.90;100.00;76766.50;4918041;28;102120;-75
2024/03/18 04:11:24;;;;;;;;;13.67;11.33;;;;;-143.90;100.00;76770.63;4908283;28;102197;-75
2024/03/18 04:13:49;;;;;;;;;11.33;10.00;;;;;-143.90;100.00;76764.44;4925629;28;102544;-74
2024/03/18 04:16:16;;;;;;;;;12.00;11.00;;;;;-143.90;100.00;76760.28;4915690;28;104569;-75
2024/03/18 04:18:42;;;;;;;;;11.00;9.33;;;;;-143.90;100.00;76756.16;4920003;28;102706;-74
2024/03/18 04:21:09;;;;;;;;;11.00;11.00;;;;;-143.90;100.00;76758.22;4910983;28;102582;-73
2024/03/18 04:23:35;;;;;;;;;12.00;8.67;;;;;-143.90;100.00;76749.97;4925025;28;102041;-73
2024/03/18 04:26:05;;;;;;;;;12.00;11.00;;;;;-143.90;100.00;76764.44;4938017;28;104669;-74
2024/03/18 04:28:34;;;;;;;;;12.00;8.67;;;;;-143.90;100.00;76760.28;4932827;28;102261;-74
2024/03/18 04:31:05;;;;;;;;;11.00;11.00;;;;;-143.90;100.00;76780.97;4919888;28;102398;-75
2024/03/18 04:33:34;;;;;;;;;19.00;9.00;;;;;-143.90;100.00;76791.31;4916029;28;102062;-75
2024/03/18 04:36:01;;;;;;;;;10.00;9.00;;;;;-143.90;100.00;76780.97;4943764;28;109745;-75
2024/03/18 04:38:31;;;;;;;;;9.67;9.67;;;;;-143.90;100.00;76772.72;4920575;28;102479;-74
2024/03/18 04:40:58;;;;;;;;;12.33;11.00;;;;;-143.90;100.00;76776.84;4920549;28;102335;-74
2024/03/18 04:43:24;;;;;;;;;11.67;8.67;;;;;-143.90;100.00;76768.56;4914827;28;102880;-74
2024/03/18 04:45:49;;;;;;;;;6.33;6.33;;;;;-143.90;100.00;76756.16;4917914;28;104510;-74
2024/03/18 04:48:15;;;;;;;;;12.33;8.00;;;;;-143.90;100.00;76762.38;4919352;28;102162;-74
2024/03/18 04:50:40;;;;;;;;;11.00;9.00;;;;;-143.90;100.00;76780.97;4934412;28;102595;-75
2024/03/18 04:53:06;;;;;;;;;15.00;9.33;;;;;-143.90;100.00;76772.72;4928275;28;102645;-74
2024/03/18 04:55:31;;;;;;;;;14.33;12.00;;;;;-143.90;100.00;76776.84;4914873;28;104616;-74
2024/03/18 04:57:59;;;;;;;;;9.00;9.00;;;;;-143.90;100.00;76764.44;4921578;28;102607;-74
2024/03/18 05:00:25;;;;;;;;;12.00;12.00;;;;;-143.90;100.00;76762.38;4919399;28;102462;-73
2024/03/18 05:02:51;;;;;;;;;12.00;9.67;;;;;-143.90;100.00;76768.56;4919214;28;102237;-75
2024/03/18 05:05:17;;;;;;;;;11.67;11.67;;;;;-143.90;100.00;76764.44;4908794;28;104540;-74
2024/03/18 05:07:44;;;;;;;;;20.67;15.00;;;;;-143.90;100.00;76789.25;4916485;28;103876;-74
2024/03/18 05:10:11;;;;;;;;;16.33;12.67;;;;;-143.90;100.00;76795.47;4916171;28;103053;-74
2024/03/18 05:12:37;;;;;;;;;18.33;13.00;;;;;-143.90;100.00;76812.00;4908346;28;103260;-74
2024/03/18 05:15:03;;;;;;;;;12.33;11.33;;;;;-143.90;100.00;76814.06;4914422;28;104453;-74
2024/03/18 05:17:28;;;;;;;;;20.00;15.00;;;;;-143.90;100.00;76820.28;4931433;28;102440;-75
2024/03/18 05:19:55;;;;;;;;;15.67;12.00;;;;;-143.90;100.00;76832.69;4920762;28;101933;-74
2024/03/18 05:22:21;;;;;;;;;6.33;5.00;;;;;-143.90;100.00;76838.88;4925745;28;102275;-74
2024/03/18 05:24:47;;;;;;;;;15.33;11.67;;;;;-143.90;100.00;76838.88;4927754;28;104562;-73
2024/03/18 05:27:15;;;;;;;;;6.00;6.00;;;;;-143.90;100.00;76824.41;4918441;28;102654;-73
2024/03/18 05:29:40;;;;;;;;;9.00;8.33;;;;;-143.90;100.00;76832.69;4927371;28;102628;-74
2024/03/18 05:32:08;;;;;;;;;8.67;7.67;;;;;-143.90;100.00;76834.75;4924379;28;102606;-74
2024/03/18 05:34:34;;;;;;;;;9.67;8.67;;;;;-143.90;100.00;76836.81;4924196;28;104605;-73
2024/03/18 05:37:01;;;;;;;;;6.67;6.67;;;;;-143.90;100.00;76824.41;4919331;28;102237;-74
2024/03/18 05:39:30;;;;;;;;;6.67;6.67;;;;;-143.90;100.00;76824.41;4918047;28;102216;-73
2024/03/18 05:41:56;;;;;;;;;5.00;5.00;;;;;-143.90;100.00;76803.72;4920880;28;102579;-73
2024/03/18 05:44:21;;;;;;;;;11.00;11.00;;;;;-143.90;100.00;76797.53;4921650;28;105072;-74
2024/03/18 05:46:47;;;;;;;;;6.67;5.67;;;;;-143.90;100.00;76807.88;4935423;28;103251;-75
2024/03/18 05:49:13;;;;;;;;;9.00;6.00;;;;;-143.90;100.00;76809.94;4911403;28;102385;-74
2024/03/18 05:51:38;;;;;;;;;6.00;4.00;;;;;-143.90;100.00;76818.22;4922237;28;103047;-74
2024/03/18 05:54:04;;;;;;;;;7.00;5.00;;;;;-143.90;100.00;76787.19;4925432;28;104460;-73
2024/03/18 05:56:30;;;;;;;;;6.00;5.00;;;;;-143.90;100.00;76768.56;4944714;28;101986;-74
2024/03/18 05:58:55;;;;;;;;;2.00;2.00;;;;;-143.90;100.00;76735.47;4926835;28;102418;-74
2024/03/18 06:01:21;;;;;;;;;4.00;2.67;;;;;-143.90;100.00;76727.22;4910372;28;103651;-74
2024/03/18 06:03:46;;;;;;;;;5.33;5.33;;;;;-143.90;100.00;76721.00;4918785;28;104660;-74
2024/03/18 06:06:12;;;;;;;;;5.33;4.00;;;;;-143.90;97.04;76729.28;4922815;28;102837;-73
2024/03/18 06:08:38;;;;;;;;;5.33;2.67;;;;;-143.90;90.74;76737.53;4917408;28;102701;-73
2024/03/18 06:11:05;;;;;;;;;2.00;2.00;;;;;-143.90;89.39;76723.06;4915011;28;102873;-73
2024/03/18 06:13:32;;;;;;;;;4.00;2.00;;;;;-143.90;87.75;76733.41;4915388;28;105179;-74
2024/03/18 06:15:58;;;;;;;;;4.75;3.50;;;;;-143.90;85.01;76741.69;4919882;28;104544;-73
2024/03/18 06:18:23;;;;;;;;;3.00;3.00;;;;;-143.90;85.84;76756.16;4924155;28;105296;-73
2024/03/18 06:20:50;;;;;;;;;2.50;2.00;;;;;-143.90;84.65;76764.44;4921111;28;102885;-73
2024/03/18 06:23:18;;;;;;;;;2.25;1.00;;;;;-143.90;88.01;76731.34;4916975;28;104509;-72
2024/03/18 06:25:59;;;;;;;;;3.50;2.00;;;;;-143.90;85.26;76706.53;4923083;28;102332;-73
2024/03/18 06:28:33;;;;;;;;;2.00;1.00;;;;;-143.90;81.64;76745.81;4920680;28;102305;-73
2024/03/18 06:30:59;;;;;;;;;4.50;2.00;;;;;-143.90;82.91;76760.28;4946699;28;101992;-75
2024/03/18 06:33:26;;;;;;;;;2.00;2.00;;;;;-143.90;87.45;76731.34;4915890;28;104564;-73
2024/03/18 06:35:56;;;;;;;;;1.75;1.75;;;;;-143.90;84.47;76752.03;4927446;28;104703;-73
2024/03/18 06:38:26;;;;;;;;;1.00;1.00;;;;;-143.90;85.93;76756.16;4923050;28;105297;-73
2024/03/18 06:40:52;;;;;;;;;5.75;4.75;;;;;-143.90;84.14;76768.56;4925497;28;102098;-73
2024/03/18 06:43:18;;;;;;;;;1.50;1.50;;;;;-143.90;90.70;76754.09;4904474;28;104564;-73
2024/03/18 06:45:44;;;;;;;;;1.25;1.25;;;;;-143.90;83.45;76739.63;4940094;28;102289;-73
2024/03/18 06:48:10;;;;;;;;;5.75;2.00;;;;;-143.90;86.31;76721.00;4918193;28;102166;-73
2024/03/18 06:50:38;;;;;;;;;4.75;4.75;;;;;-143.90;82.22;76735.47;4918509;28;102149;-73
2024/03/18 06:53:03;;;;;;;;;3.50;2.00;;;;;-143.90;81.47;76735.47;4914305;28;103335;-72
2024/03/18 06:55:36;;;;;;;;;3.00;2.00;;;;;-143.90;79.69;76756.16;4918416;28;103173;-74
2024/03/18 06:58:04;;;;;;;;;4.00;2.00;;;;;-143.90;81.39;76772.72;4926048;28;102737;-73
2024/03/18 07:00:31;;;;;;;;;2.00;2.00;;;;;-143.90;83.61;76743.75;4924740;28;102357;-74
2024/03/18 07:02:57;;;;;;;;;2.00;2.00;;;;;-143.90;83.78;76718.94;4941545;28;104607;-74
2024/03/18 07:05:23;;;;;;;;;1.00;1.00;;;;;-143.90;80.30;76710.66;4929255;28;102393;-74
2024/03/18 07:07:49;;;;;;;;;1.00;1.00;;;;;-143.90;77.96;76681.72;4929707;28;102014;-74
2024/03/18 07:10:15;;;;;;;;;1.50;1.50;;;;;-143.90;76.28;76706.53;4926401;28;103749;-74
2024/03/18 07:12:42;;;;;;;;;2.00;1.00;;;;;-143.90;75.21;76689.97;4922483;28;104553;-74
2024/03/18 07:15:13;;;;;;;;;3.50;2.50;;;;;-143.90;73.89;76729.28;4916390;28;102337;-74
2024/03/18 07:17:39;;;;;;;;;2.50;2.00;;;;;-143.90;77.66;76706.53;4916705;28;102682;-73
2024/03/18 07:20:10;;;;;;;;;4.75;4.00;;;;;-143.90;77.78;76714.78;4925419;28;102405;-73
2024/03/18 07:22:37;;;;;;;;;4.25;4.00;;;;;-143.90;76.30;76714.78;4942046;28;104587;-74
2024/03/18 07:25:04;;;;;;;;;5.00;4.00;;;;;-143.90;75.27;76710.66;4913003;28;102400;-70
2024/03/18 07:27:30;;;;;;;;;5.75;5.00;;;;;-143.90;76.66;76696.19;4922138;28;102092;-73
2024/03/18 07:29:57;;;;;;;;;4.00;2.00;;;;;-143.90;76.23;76687.91;4913828;28;102541;-73
2024/03/18 07:32:25;;;;;;;;;1.75;1.75;;;;;-143.90;74.61;76663.09;4925732;28;104636;-73
2024/03/18 07:34:52;;;;;;;;;5.00;4.00;;;;;-143.90;74.56;76673.44;4925024;28;102083;-74
2024/03/18 07:37:18;;;;;;;;;3.50;3.50;;;;;-143.90;74.23;76687.91;4937286;28;102420;-73
2024/03/18 07:39:45;;;;;;;;;4.00;4.00;;;;;-143.90;75.32;76681.72;4919624;28;103233;-73
2024/03/18 07:42:11;;;;;;;;;4.00;2.00;;;;;-143.90;74.42;76654.81;4910555;28;104670;-74
2024/03/18 07:44:38;;;;;;;;;5.75;4.75;;;;;-143.90;74.29;76663.09;4925675;28;102731;-71
2024/03/18 07:47:04;;;;;;;;;2.00;2.00;;;;;-143.90;71.52;76650.69;4926429;28;102919;-74
2024/03/18 07:49:29;;;;;;;;;6.75;4.25;;;;;-143.90;72.57;76636.22;4919000;28;102470;-74
2024/03/18 07:51:55;;;;;;;;;3.50;2.50;;;;;-143.90;72.20;76611.38;4921113;28;104498;-74
2024/03/18 07:54:20;;;;;;;;;6.00;3.50;;;;;-143.90;69.65;76617.59;4920019;28;102293;-74
2024/03/18 07:56:46;;;;;;;;;2.00;2.00;;;;;-143.90;70.51;76615.53;4920463;28;102257;-73
2024/03/18 07:59:12;;;;;;;;;5.00;4.00;;;;;-143.90;71.65;76640.34;4915335;28;102340;-74
2024/03/18 08:01:38;;;;;;;;;4.25;4.00;;;;;-143.90;71.66;76632.06;4919695;28;105109;-73
2024/03/18 08:04:04;;;;;;;;;5.25;3.50;;;;;-143.90;67.94;76658.97;4943463;28;103095;-74
2024/03/18 08:06:30;;;;;;;;;7.50;6.00;;;;;-143.90;67.54;76658.97;4923508;28;102249;-74
2024/03/18 08:08:55;;;;;;;;;5.50;4.75;;;;;-143.90;67.22;76679.63;4925354;28;102891;-75
2024/03/18 08:11:21;;;;;;;;;5.25;4.25;;;;;-143.90;67.56;76640.34;4909785;28;104545;-73
2024/03/18 08:13:46;;;;;;;;;4.00;3.50;;;;;-143.90;67.49;76611.38;4922517;28;108078;-73
2024/03/18 08:16:12;;;;;;;;;2.00;2.00;;;;;-143.90;65.82;76603.13;4923584;28;102382;-72
2024/03/18 08:18:37;;;;;;;;;5.00;5.00;;;;;-143.90;63.83;76634.13;4927791;28;102847;-74
2024/03/18 08:21:03;;;;;;;;;8.00;5.00;;;;;-143.90;62.96;76634.13;4946423;28;104379;-73
2024/03/18 08:23:29;;;;;;;;;2.00;2.00;;;;;-143.90;64.95;76661.03;4919675;28;103246;-74
2024/03/18 08:25:55;;;;;;;;;7.75;5.25;;;;;-143.90;66.52;76619.66;4927685;28;102300;-74
2024/03/18 08:28:21;;;;;;;;;3.00;2.50;;;;;-143.90;65.95;76598.97;4928361;28;102566;-74
2024/03/18 08:30:46;;;;;;;;;5.00;5.00;;;;;-143.90;65.12;76590.72;4926644;28;104541;-74
2024/03/18 08:33:12;;;;;;;;;5.50;5.50;;;;;-143.90;63.63;76607.25;4935492;28;101955;-74
2024/03/18 08:35:38;;;;;;;;;6.50;4.50;;;;;-143.90;63.97;76570.03;4940753;28;103022;-72
2024/03/18 08:38:04;;;;;;;;;8.00;6.00;;;;;-143.90;62.57;76592.78;4928226;28;102392;-74
2024/03/18 08:40:29;;;;;;;;;5.00;4.00;;;;;-143.90;63.33;76551.41;4923087;28;104654;-74
2024/03/18 08:42:55;;;;;;;;;4.00;2.75;;;;;-143.90;61.70;76497.63;4922835;28;102299;-74
2024/03/18 08:45:21;;;;;;;;;6.00;5.75;;;;;-143.90;62.06;76516.25;4915823;28;102191;-74
2024/03/18 08:47:47;;;;;;;;;8.00;5.75;;;;;-143.90;62.08;76574.16;4928662;28;104044;-74
2024/03/18 08:50:12;;;;;;;;;10.00;8.00;;;;;-143.90;62.45;76582.44;4924893;28;104524;-74
2024/03/18 08:52:39;;;;;;;;;6.50;5.75;;;;;-143.90;61.88;76570.03;4928189;28;102069;-73
2024/03/18 08:55:05;;;;;;;;;7.75;6.00;;;;;-143.90;61.72;76578.31;4928236;28;102621;-74
2024/03/18 08:57:31;;;;;;;;;3.25;3.25;;;;;-143.90;62.98;76528.66;4918531;28;102786;-74
2024/03/18 08:59:57;;;;;;;;;6.50;6.50;;;;;-143.90;62.40;76534.88;4924686;28;104539;-74
2024/03/18 09:02:23;;;;;;;;;9.50;9.25;;;;;-143.90;64.26;76524.53;4927722;28;104982;-74
2024/03/18 09:04:48;;;;;;;;;8.50;7.25;;;;;-143.90;63.43;76474.91;4926545;28;104486;-74
2024/03/18 09:07:14;;;;;;;;;9.00;7.50;;;;;-143.90;60.82;76520.38;4921016;28;102349;-74
2024/03/18 09:09:40;;;;;;;;;7.50;7.00;;;;;-143.90;62.05;76532.78;4922905;28;104697;-74
2024/03/18 09:12:06;;;;;;;;;8.00;7.25;;;;;-143.90;62.26;76510.06;4940007;28;102609;-73
2024/03/18 09:14:31;;;;;;;;;9.00;7.00;;;;;-143.90;64.14;76481.09;4923137;28;101992;-74
2024/03/18 09:17:01;;;;;;;;;10.25;8.00;;;;;-143.90;62.11;76474.91;4925959;28;102869;-73
2024/03/18 09:19:28;;;;;;;;;5.75;5.00;;;;;-143.90;61.98;76464.56;4925664;28;104580;-74
2024/03/18 09:21:53;;;;;;;;;5.25;5.25;;;;;-143.90;61.28;76474.91;4927475;28;102118;-74
2024/03/18 09:24:19;;;;;;;;;10.00;8.50;;;;;-143.90;61.09;76507.97;4926103;28;101958;-74
2024/03/18 09:26:46;;;;;;;;;7.50;7.25;;;;;-143.90;61.52;76460.41;4928842;28;102308;-74
2024/03/18 09:29:12;;;;;;;;;8.00;7.50;;;;;-143.90;61.87;76443.88;4907066;28;104074;-74
2024/03/18 09:31:38;;;;;;;;;6.25;5.50;;;;;-143.90;61.14;76414.91;4899782;28;103305;-72
2024/03/18 09:34:04;;;;;;;;;2.00;2.00;;;;;-143.90;60.49;76388.03;4921702;28;102079;-74
2024/03/18 09:36:29;;;;;;;;;6.25;5.75;;;;;-143.90;60.20;76408.72;4923246;28;101974;-73
2024/03/18 09:38:55;;;;;;;;;9.00;7.00;;;;;-143.90;60.08;76437.66;4921980;28;104365;-73
2024/03/18 09:41:20;;;;;;;;;7.00;6.25;;;;;-143.90;58.89;76452.16;4912211;28;102464;-73
2024/03/18 09:43:49;;;;;;;;;7.50;6.00;;;;;-143.90;59.35;76462.47;4920831;28;102100;-73
2024/03/18 09:46:18;;;;;;;;;7.00;7.00;;;;;-143.90;60.10;76466.63;4919022;28;102435;-75
2024/03/18 09:48:44;;;;;;;;;9.00;9.00;;;;;-143.90;60.26;76474.91;4923116;28;104553;-74
2024/03/18 09:51:15;;;;;;;;;10.50;9.50;;;;;-143.90;58.60;76530.72;4918688;28;102393;-75
2024/03/18 09:53:44;;;;;;;;;9.00;9.00;;;;;-143.90;58.98;76561.75;4921046;28;101824;-74
2024/03/18 09:56:13;;;;;;;;;7.00;6.25;;;;;-143.90;59.20;76547.28;4921350;28;102095;-72
2024/03/18 09:58:39;;;;;;;;;5.75;5.75;;;;;-143.90;59.50;76514.19;4925351;28;105733;-73
2024/03/18 10:01:04;;;;;;;;;8.75;6.25;;;;;-143.90;59.18;76545.22;4922641;28;103089;-74
2024/03/18 10:03:30;;;;;;;;;6.75;6.50;;;;;-143.90;59.37;76553.47;4906674;28;102243;-73
2024/03/18 10:05:55;;;;;;;;;6.75;6.00;;;;;-143.90;59.79;76526.59;4922527;28;102231;-73
2024/03/18 10:08:21;;;;;;;;;6.75;6.00;;;;;-143.90;58.21;76555.53;4922308;28;104599;-73
2024/03/18 10:10:51;;;;;;;;;8.50;5.00;;;;;-143.90;59.40;76507.97;4939995;28;105584;-75
2024/03/18 10:13:18;;;;;;;;;7.25;6.00;;;;;-143.90;58.13;76499.72;4909472;28;101992;-73
2024/03/18 10:15:44;;;;;;;;;9.00;7.50;;;;;-143.90;58.68;76516.25;4926839;28;102092;-75
2024/03/18 10:18:13;;;;;;;;;4.50;4.50;;;;;-143.90;57.65;76454.22;4926364;28;102713;-75
2024/03/18 10:20:39;;;;;;;;;7.00;5.75;;;;;-143.90;59.59;76445.94;4929306;28;102539;-72
2024/03/18 10:23:10;;;;;;;;;9.25;8.50;;;;;-143.90;58.25;76495.56;4925923;28;103081;-73
2024/03/18 10:25:37;;;;;;;;;7.00;7.00;;;;;-143.90;59.03;76450.06;4936067;28;102295;-73
2024/03/18 10:28:09;;;;;;;;;10.00;9.50;;;;;-143.90;59.31;76431.47;4923217;28;104702;-73
2024/03/18 10:30:37;;;;;;;;;6.75;6.00;;;;;-143.90;57.67;76392.16;4922978;28;102331;-75
2024/03/18 10:33:04;;;;;;;;;9.00;6.25;;;;;-143.90;57.92;76388.03;4928057;28;102063;-74
2024/03/18 10:35:34;;;;;;;;;12.50;7.50;;;;;-143.90;58.99;76367.34;4917141;28;102253;-73
2024/03/18 10:38:17;;;;;;;;;9.00;7.00;;;;;-143.90;59.72;76363.22;4927161;28;104701;-74
2024/03/18 10:40:50;;;;;;;;;10.50;6.50;;;;;-143.90;56.73;76383.91;4929163;28;102699;-73
2024/03/18 10:43:25;;;;;;;;;5.75;5.50;;;;;-143.90;58.25;76342.53;4936742;28;102039;-74
2024/03/18 10:45:52;;;;;;;;;7.50;5.25;;;;;-143.90;56.02;76319.78;4936534;28;102555;-74
2024/03/18 10:48:18;;;;;;;;;10.00;8.00;;;;;-143.90;54.39;76313.59;4919720;28;104586;-74
2024/03/18 10:50:45;;;;;;;;;11.75;11.00;;;;;-143.90;54.78;76367.34;4928902;28;102700;-73
2024/03/18 10:53:20;;;;;;;;;6.75;4.50;;;;;-143.90;56.12;76330.13;4927827;28;102475;-74
2024/03/18 10:55:49;;;;;;;;;10.25;10.00;;;;;-143.90;56.38;76377.69;4923977;28;102227;-74
2024/03/18 10:58:16;;;;;;;;;10.00;9.00;;;;;-143.90;56.36;76392.16;4917400;28;104587;-73
2024/03/18 11:00:43;;;;;;;;;12.25;11.50;;;;;-143.90;56.90;76466.63;4922661;28;102734;-74
2024/03/18 11:03:14;;;;;;;;;10.50;9.00;;;;;-143.90;57.43;76425.25;4944519;28;102481;-74
2024/03/18 11:05:48;;;;;;;;;9.00;7.00;;;;;-143.90;56.08;76375.63;4913559;28;102548;-73